sensor_id;sensor_type;location;lat;lon;timestamp;P1;durP1;ratioP1;P2;durP2;ratioP2
38937;SDS011;24727;51.974;20.868;2023-12-28T00:01:24;31.52;;;14.43;;
38937;SDS011;24727;51.974;20.868;2023-12-28T00:03:50;34.85;;;15.98;;
38937;SDS011;24727;51.974;20.868;2023-12-28T00:06:16;33.35;;;15.38;;
38937;SDS011;24727;51.974;20.868;2023-12-28T00:08:42;33.65;;;17.20;;
38937;SDS011;24727;51.974;20.868;2023-12-28T00:11:08;36.28;;;16.27;;
38937;SDS011;24727;51.974;20.868;2023-12-28T00:13:34;37.65;;;16.52;;
38937;SDS011;24727;51.974;20.868;2023-12-28T00:16:00;39.72;;;16.55;;
38937;SDS011;24727;51.974;20.868;2023-12-28T00:18:25;31.05;;;15.43;;
38937;SDS011;24727;51.974;20.868;2023-12-28T00:20:52;32.13;;;15.90;;
38937;SDS011;24727;51.974;20.868;2023-12-28T00:23:18;42.22;;;16.95;;
38937;SDS011;24727;51.974;20.868;2023-12-28T00:25:45;36.55;;;16.10;;
38937;SDS011;24727;51.974;20.868;2023-12-28T00:28:11;32.42;;;15.32;;
38937;SDS011;24727;51.974;20.868;2023-12-28T00:30:37;33.55;;;16.55;;
38937;SDS011;24727;51.974;20.868;2023-12-28T00:33:03;31.77;;;14.68;;
38937;SDS011;24727;51.974;20.868;2023-12-28T00:35:29;30.05;;;13.60;;
38937;SDS011;24727;51.974;20.868;2023-12-28T00:37:55;36.33;;;15.85;;
38937;SDS011;24727;51.974;20.868;2023-12-28T00:40:21;35.10;;;16.10;;
38937;SDS011;24727;51.974;20.868;2023-12-28T00:42:47;33.65;;;15.30;;
38937;SDS011;24727;51.974;20.868;2023-12-28T00:45:13;33.33;;;14.05;;
38937;SDS011;24727;51.974;20.868;2023-12-28T00:47:39;28.50;;;13.85;;
38937;SDS011;24727;51.974;20.868;2023-12-28T00:50:08;35.67;;;14.48;;
38937;SDS011;24727;51.974;20.868;2023-12-28T00:52:37;33.90;;;14.38;;
38937;SDS011;24727;51.974;20.868;2023-12-28T00:55:03;27.98;;;14.57;;
38937;SDS011;24727;51.974;20.868;2023-12-28T00:57:30;29.25;;;14.05;;
38937;SDS011;24727;51.974;20.868;2023-12-28T00:59:55;31.65;;;14.15;;
38937;SDS011;24727;51.974;20.868;2023-12-28T01:02:21;31.10;;;14.57;;
38937;SDS011;24727;51.974;20.868;2023-12-28T01:04:47;33.72;;;13.73;;
38937;SDS011;24727;51.974;20.868;2023-12-28T01:07:13;34.65;;;13.50;;
38937;SDS011;24727;51.974;20.868;2023-12-28T01:09:38;30.30;;;14.30;;
38937;SDS011;24727;51.974;20.868;2023-12-28T01:12:04;34.97;;;14.02;;
38937;SDS011;24727;51.974;20.868;2023-12-28T01:14:31;31.60;;;13.80;;
38937;SDS011;24727;51.974;20.868;2023-12-28T01:16:57;32.17;;;13.95;;
38937;SDS011;24727;51.974;20.868;2023-12-28T01:19:23;23.33;;;12.02;;
38937;SDS011;24727;51.974;20.868;2023-12-28T01:21:49;27.40;;;13.50;;
38937;SDS011;24727;51.974;20.868;2023-12-28T01:24:15;31.73;;;13.13;;
38937;SDS011;24727;51.974;20.868;2023-12-28T01:26:41;29.60;;;12.43;;
38937;SDS011;24727;51.974;20.868;2023-12-28T01:29:07;27.50;;;11.20;;
38937;SDS011;24727;51.974;20.868;2023-12-28T01:31:33;26.80;;;12.45;;
38937;SDS011;24727;51.974;20.868;2023-12-28T01:33:59;22.00;;;10.48;;
38937;SDS011;24727;51.974;20.868;2023-12-28T01:36:25;29.40;;;12.82;;
38937;SDS011;24727;51.974;20.868;2023-12-28T01:38:52;21.80;;;10.63;;
38937;SDS011;24727;51.974;20.868;2023-12-28T01:41:17;26.98;;;12.38;;
38937;SDS011;24727;51.974;20.868;2023-12-28T01:43:43;24.73;;;11.55;;
38937;SDS011;24727;51.974;20.868;2023-12-28T01:46:13;26.15;;;10.95;;
38937;SDS011;24727;51.974;20.868;2023-12-28T01:51:09;27.75;;;12.20;;
38937;SDS011;24727;51.974;20.868;2023-12-28T01:53:36;21.40;;;10.80;;
38937;SDS011;24727;51.974;20.868;2023-12-28T01:56:02;29.08;;;11.30;;
38937;SDS011;24727;51.974;20.868;2023-12-28T01:58:28;25.63;;;11.43;;
38937;SDS011;24727;51.974;20.868;2023-12-28T02:01:01;31.48;;;12.70;;
38937;SDS011;24727;51.974;20.868;2023-12-28T02:03:28;26.90;;;11.68;;
38937;SDS011;24727;51.974;20.868;2023-12-28T02:05:54;22.98;;;11.38;;
38937;SDS011;24727;51.974;20.868;2023-12-28T02:08:20;24.98;;;10.77;;
38937;SDS011;24727;51.974;20.868;2023-12-28T02:10:46;22.88;;;10.52;;
38937;SDS011;24727;51.974;20.868;2023-12-28T02:13:12;23.75;;;10.38;;
38937;SDS011;24727;51.974;20.868;2023-12-28T02:15:39;24.67;;;9.95;;
38937;SDS011;24727;51.974;20.868;2023-12-28T02:18:05;25.73;;;10.20;;
38937;SDS011;24727;51.974;20.868;2023-12-28T02:20:42;19.55;;;9.18;;
38937;SDS011;24727;51.974;20.868;2023-12-28T02:23:09;19.60;;;9.60;;
38937;SDS011;24727;51.974;20.868;2023-12-28T02:25:35;20.20;;;8.95;;
38937;SDS011;24727;51.974;20.868;2023-12-28T02:28:01;21.85;;;9.65;;
38937;SDS011;24727;51.974;20.868;2023-12-28T02:30:28;19.98;;;8.98;;
38937;SDS011;24727;51.974;20.868;2023-12-28T02:35:49;23.00;;;10.75;;
38937;SDS011;24727;51.974;20.868;2023-12-28T02:38:20;19.27;;;9.75;;
38937;SDS011;24727;51.974;20.868;2023-12-28T02:40:48;20.75;;;8.65;;
38937;SDS011;24727;51.974;20.868;2023-12-28T02:43:15;19.17;;;8.98;;
38937;SDS011;24727;51.974;20.868;2023-12-28T02:45:41;24.10;;;10.18;;
38937;SDS011;24727;51.974;20.868;2023-12-28T02:48:07;17.15;;;9.60;;
38937;SDS011;24727;51.974;20.868;2023-12-28T02:50:33;20.77;;;8.48;;
38937;SDS011;24727;51.974;20.868;2023-12-28T02:52:59;17.90;;;8.57;;
38937;SDS011;24727;51.974;20.868;2023-12-28T02:55:25;22.40;;;8.48;;
38937;SDS011;24727;51.974;20.868;2023-12-28T02:57:52;17.58;;;9.13;;
38937;SDS011;24727;51.974;20.868;2023-12-28T03:00:20;20.23;;;8.35;;
38937;SDS011;24727;51.974;20.868;2023-12-28T03:02:46;19.80;;;8.63;;
38937;SDS011;24727;51.974;20.868;2023-12-28T03:05:12;19.83;;;9.60;;
38937;SDS011;24727;51.974;20.868;2023-12-28T03:07:38;19.70;;;9.88;;
38937;SDS011;24727;51.974;20.868;2023-12-28T03:10:05;17.25;;;7.72;;
38937;SDS011;24727;51.974;20.868;2023-12-28T03:12:32;16.13;;;7.97;;
38937;SDS011;24727;51.974;20.868;2023-12-28T03:14:58;19.10;;;8.45;;
38937;SDS011;24727;51.974;20.868;2023-12-28T03:17:24;16.25;;;7.65;;
38937;SDS011;24727;51.974;20.868;2023-12-28T03:19:49;16.90;;;8.15;;
38937;SDS011;24727;51.974;20.868;2023-12-28T03:22:15;19.17;;;8.63;;
38937;SDS011;24727;51.974;20.868;2023-12-28T03:24:42;23.95;;;8.68;;
38937;SDS011;24727;51.974;20.868;2023-12-28T03:27:08;22.17;;;8.38;;
38937;SDS011;24727;51.974;20.868;2023-12-28T03:29:34;15.38;;;8.30;;
38937;SDS011;24727;51.974;20.868;2023-12-28T03:32:00;20.30;;;8.23;;
38937;SDS011;24727;51.974;20.868;2023-12-28T03:34:26;14.90;;;7.05;;
38937;SDS011;24727;51.974;20.868;2023-12-28T03:36:54;16.77;;;7.15;;
38937;SDS011;24727;51.974;20.868;2023-12-28T03:39:20;22.52;;;9.10;;
38937;SDS011;24727;51.974;20.868;2023-12-28T03:41:46;19.48;;;8.95;;
38937;SDS011;24727;51.974;20.868;2023-12-28T03:44:13;22.75;;;8.50;;
38937;SDS011;24727;51.974;20.868;2023-12-28T03:46:39;15.55;;;7.70;;
38937;SDS011;24727;51.974;20.868;2023-12-28T03:49:04;16.65;;;7.55;;
38937;SDS011;24727;51.974;20.868;2023-12-28T03:51:30;13.25;;;7.07;;
38937;SDS011;24727;51.974;20.868;2023-12-28T03:53:56;18.00;;;7.20;;
38937;SDS011;24727;51.974;20.868;2023-12-28T03:56:23;19.13;;;8.70;;
38937;SDS011;24727;51.974;20.868;2023-12-28T03:58:50;17.55;;;8.48;;
38937;SDS011;24727;51.974;20.868;2023-12-28T04:01:17;18.23;;;8.65;;
38937;SDS011;24727;51.974;20.868;2023-12-28T04:03:44;22.50;;;9.40;;
38937;SDS011;24727;51.974;20.868;2023-12-28T04:06:10;18.40;;;8.45;;
38937;SDS011;24727;51.974;20.868;2023-12-28T04:08:37;17.00;;;8.40;;
38937;SDS011;24727;51.974;20.868;2023-12-28T04:11:04;24.27;;;9.38;;
38937;SDS011;24727;51.974;20.868;2023-12-28T04:13:29;20.35;;;8.57;;
38937;SDS011;24727;51.974;20.868;2023-12-28T04:15:55;20.63;;;9.32;;
38937;SDS011;24727;51.974;20.868;2023-12-28T04:18:21;19.02;;;9.32;;
38937;SDS011;24727;51.974;20.868;2023-12-28T04:20:47;24.70;;;9.68;;
38937;SDS011;24727;51.974;20.868;2023-12-28T04:23:13;25.50;;;9.85;;
38937;SDS011;24727;51.974;20.868;2023-12-28T04:25:39;18.58;;;8.63;;
38937;SDS011;24727;51.974;20.868;2023-12-28T04:28:05;20.60;;;9.15;;
38937;SDS011;24727;51.974;20.868;2023-12-28T04:30:32;22.48;;;9.55;;
38937;SDS011;24727;51.974;20.868;2023-12-28T04:32:58;22.45;;;9.95;;
38937;SDS011;24727;51.974;20.868;2023-12-28T04:35:23;17.58;;;8.40;;
38937;SDS011;24727;51.974;20.868;2023-12-28T04:37:49;20.73;;;9.30;;
38937;SDS011;24727;51.974;20.868;2023-12-28T04:40:15;20.35;;;8.77;;
38937;SDS011;24727;51.974;20.868;2023-12-28T04:42:42;24.00;;;9.48;;
38937;SDS011;24727;51.974;20.868;2023-12-28T04:45:08;32.42;;;10.90;;
38937;SDS011;24727;51.974;20.868;2023-12-28T04:47:35;18.80;;;9.60;;
38937;SDS011;24727;51.974;20.868;2023-12-28T04:50:02;23.13;;;9.85;;
38937;SDS011;24727;51.974;20.868;2023-12-28T04:52:29;20.48;;;9.32;;
38937;SDS011;24727;51.974;20.868;2023-12-28T04:54:56;26.77;;;9.68;;
38937;SDS011;24727;51.974;20.868;2023-12-28T04:57:22;20.60;;;8.90;;
38937;SDS011;24727;51.974;20.868;2023-12-28T04:59:52;19.10;;;9.13;;
38937;SDS011;24727;51.974;20.868;2023-12-28T05:02:18;21.35;;;9.38;;
38937;SDS011;24727;51.974;20.868;2023-12-28T05:04:44;27.67;;;9.80;;
38937;SDS011;24727;51.974;20.868;2023-12-28T05:07:10;25.67;;;9.45;;
38937;SDS011;24727;51.974;20.868;2023-12-28T05:09:36;19.83;;;8.88;;
38937;SDS011;24727;51.974;20.868;2023-12-28T05:12:02;22.02;;;9.55;;
38937;SDS011;24727;51.974;20.868;2023-12-28T05:14:28;18.73;;;8.68;;
38937;SDS011;24727;51.974;20.868;2023-12-28T05:16:54;19.70;;;8.65;;
38937;SDS011;24727;51.974;20.868;2023-12-28T05:19:20;22.98;;;8.77;;
38937;SDS011;24727;51.974;20.868;2023-12-28T05:21:46;18.73;;;8.00;;
38937;SDS011;24727;51.974;20.868;2023-12-28T05:24:12;22.45;;;9.70;;
38937;SDS011;24727;51.974;20.868;2023-12-28T05:26:38;20.73;;;8.85;;
38937;SDS011;24727;51.974;20.868;2023-12-28T05:29:04;16.23;;;8.02;;
38937;SDS011;24727;51.974;20.868;2023-12-28T05:31:30;23.80;;;9.00;;
38937;SDS011;24727;51.974;20.868;2023-12-28T05:33:56;17.25;;;8.43;;
38937;SDS011;24727;51.974;20.868;2023-12-28T05:36:23;23.52;;;9.57;;
38937;SDS011;24727;51.974;20.868;2023-12-28T05:38:49;21.83;;;9.65;;
38937;SDS011;24727;51.974;20.868;2023-12-28T05:41:15;21.10;;;9.00;;
38937;SDS011;24727;51.974;20.868;2023-12-28T05:43:41;22.70;;;9.25;;
38937;SDS011;24727;51.974;20.868;2023-12-28T05:46:07;21.58;;;8.23;;
38937;SDS011;24727;51.974;20.868;2023-12-28T05:48:33;21.17;;;8.38;;
38937;SDS011;24727;51.974;20.868;2023-12-28T05:50:59;17.45;;;8.57;;
38937;SDS011;24727;51.974;20.868;2023-12-28T05:53:25;19.60;;;7.95;;
38937;SDS011;24727;51.974;20.868;2023-12-28T05:55:52;18.15;;;9.15;;
38937;SDS011;24727;51.974;20.868;2023-12-28T05:58:18;16.80;;;8.70;;
38937;SDS011;24727;51.974;20.868;2023-12-28T06:00:44;16.60;;;9.13;;
38937;SDS011;24727;51.974;20.868;2023-12-28T06:03:13;27.30;;;9.23;;
38937;SDS011;24727;51.974;20.868;2023-12-28T06:05:39;18.65;;;7.75;;
38937;SDS011;24727;51.974;20.868;2023-12-28T06:08:05;21.85;;;9.18;;
38937;SDS011;24727;51.974;20.868;2023-12-28T06:10:31;18.05;;;9.07;;
38937;SDS011;24727;51.974;20.868;2023-12-28T06:12:57;23.17;;;10.15;;
38937;SDS011;24727;51.974;20.868;2023-12-28T06:15:23;19.13;;;8.45;;
38937;SDS011;24727;51.974;20.868;2023-12-28T06:17:49;24.73;;;9.10;;
38937;SDS011;24727;51.974;20.868;2023-12-28T06:20:15;21.08;;;8.80;;
38937;SDS011;24727;51.974;20.868;2023-12-28T06:22:41;22.23;;;9.18;;
38937;SDS011;24727;51.974;20.868;2023-12-28T06:25:07;17.77;;;8.32;;
38937;SDS011;24727;51.974;20.868;2023-12-28T06:27:36;18.45;;;8.52;;
38937;SDS011;24727;51.974;20.868;2023-12-28T06:30:02;16.38;;;8.50;;
38937;SDS011;24727;51.974;20.868;2023-12-28T06:32:28;19.50;;;8.90;;
38937;SDS011;24727;51.974;20.868;2023-12-28T06:34:54;16.33;;;8.30;;
38937;SDS011;24727;51.974;20.868;2023-12-28T06:37:20;17.83;;;8.02;;
38937;SDS011;24727;51.974;20.868;2023-12-28T06:39:45;20.88;;;8.20;;
38937;SDS011;24727;51.974;20.868;2023-12-28T06:42:11;15.95;;;7.70;;
38937;SDS011;24727;51.974;20.868;2023-12-28T06:44:37;15.65;;;8.10;;
38937;SDS011;24727;51.974;20.868;2023-12-28T06:47:03;17.70;;;7.93;;
38937;SDS011;24727;51.974;20.868;2023-12-28T06:49:29;16.10;;;6.25;;
38937;SDS011;24727;51.974;20.868;2023-12-28T06:51:54;17.80;;;8.18;;
38937;SDS011;24727;51.974;20.868;2023-12-28T06:54:20;15.90;;;7.57;;
38937;SDS011;24727;51.974;20.868;2023-12-28T06:56:46;17.38;;;8.02;;
38937;SDS011;24727;51.974;20.868;2023-12-28T06:59:12;16.63;;;7.55;;
38937;SDS011;24727;51.974;20.868;2023-12-28T07:01:38;18.45;;;7.25;;
38937;SDS011;24727;51.974;20.868;2023-12-28T07:04:04;16.05;;;7.78;;
38937;SDS011;24727;51.974;20.868;2023-12-28T07:06:30;14.82;;;7.03;;
38937;SDS011;24727;51.974;20.868;2023-12-28T07:08:57;16.63;;;7.88;;
38937;SDS011;24727;51.974;20.868;2023-12-28T07:11:23;13.23;;;6.93;;
38937;SDS011;24727;51.974;20.868;2023-12-28T07:13:48;15.90;;;6.72;;
38937;SDS011;24727;51.974;20.868;2023-12-28T07:16:14;15.27;;;7.22;;
38937;SDS011;24727;51.974;20.868;2023-12-28T07:18:41;17.23;;;7.03;;
38937;SDS011;24727;51.974;20.868;2023-12-28T07:21:07;15.07;;;7.40;;
38937;SDS011;24727;51.974;20.868;2023-12-28T07:23:37;14.30;;;6.63;;
38937;SDS011;24727;51.974;20.868;2023-12-28T07:26:03;14.85;;;7.05;;
38937;SDS011;24727;51.974;20.868;2023-12-28T07:28:30;13.20;;;5.97;;
38937;SDS011;24727;51.974;20.868;2023-12-28T07:30:56;12.73;;;6.75;;
38937;SDS011;24727;51.974;20.868;2023-12-28T07:33:22;16.13;;;7.70;;
38937;SDS011;24727;51.974;20.868;2023-12-28T07:35:48;15.13;;;7.55;;
38937;SDS011;24727;51.974;20.868;2023-12-28T07:38:13;19.75;;;9.30;;
38937;SDS011;24727;51.974;20.868;2023-12-28T07:40:40;18.30;;;9.25;;
38937;SDS011;24727;51.974;20.868;2023-12-28T07:43:06;17.80;;;8.43;;
38937;SDS011;24727;51.974;20.868;2023-12-28T07:45:32;20.15;;;8.88;;
38937;SDS011;24727;51.974;20.868;2023-12-28T07:48:01;17.73;;;9.43;;
38937;SDS011;24727;51.974;20.868;2023-12-28T07:50:27;17.95;;;9.63;;
38937;SDS011;24727;51.974;20.868;2023-12-28T07:52:53;20.13;;;10.20;;
38937;SDS011;24727;51.974;20.868;2023-12-28T07:55:18;17.45;;;9.20;;
38937;SDS011;24727;51.974;20.868;2023-12-28T07:57:44;18.20;;;9.40;;
38937;SDS011;24727;51.974;20.868;2023-12-28T08:00:11;16.30;;;8.95;;
38937;SDS011;24727;51.974;20.868;2023-12-28T08:02:37;24.02;;;10.73;;
38937;SDS011;24727;51.974;20.868;2023-12-28T08:05:03;18.92;;;9.13;;
38937;SDS011;24727;51.974;20.868;2023-12-28T08:07:30;20.75;;;10.15;;
38937;SDS011;24727;51.974;20.868;2023-12-28T08:09:56;19.80;;;9.75;;
38937;SDS011;24727;51.974;20.868;2023-12-28T08:12:21;18.48;;;10.23;;
38937;SDS011;24727;51.974;20.868;2023-12-28T08:14:49;21.05;;;10.85;;
38937;SDS011;24727;51.974;20.868;2023-12-28T08:17:15;18.52;;;10.30;;
38937;SDS011;24727;51.974;20.868;2023-12-28T08:19:41;23.20;;;10.20;;
38937;SDS011;24727;51.974;20.868;2023-12-28T08:22:07;20.50;;;11.13;;
38937;SDS011;24727;51.974;20.868;2023-12-28T08:24:33;23.42;;;10.30;;
38937;SDS011;24727;51.974;20.868;2023-12-28T08:26:59;19.48;;;10.10;;
38937;SDS011;24727;51.974;20.868;2023-12-28T08:29:25;21.65;;;10.70;;
38937;SDS011;24727;51.974;20.868;2023-12-28T08:31:51;22.95;;;10.20;;
38937;SDS011;24727;51.974;20.868;2023-12-28T08:34:17;15.65;;;9.52;;
38937;SDS011;24727;51.974;20.868;2023-12-28T08:36:43;21.20;;;10.18;;
38937;SDS011;24727;51.974;20.868;2023-12-28T08:39:09;18.40;;;9.55;;
38937;SDS011;24727;51.974;20.868;2023-12-28T08:41:35;19.25;;;10.15;;
38937;SDS011;24727;51.974;20.868;2023-12-28T08:44:01;16.58;;;9.85;;
38937;SDS011;24727;51.974;20.868;2023-12-28T08:46:27;22.25;;;9.85;;
38937;SDS011;24727;51.974;20.868;2023-12-28T08:48:53;22.42;;;12.50;;
38937;SDS011;24727;51.974;20.868;2023-12-28T08:51:19;23.63;;;12.27;;
38937;SDS011;24727;51.974;20.868;2023-12-28T08:53:45;22.17;;;9.63;;
38937;SDS011;24727;51.974;20.868;2023-12-28T08:56:20;26.38;;;13.40;;
38937;SDS011;24727;51.974;20.868;2023-12-28T08:58:47;26.67;;;12.00;;
38937;SDS011;24727;51.974;20.868;2023-12-28T09:01:21;25.55;;;11.85;;
38937;SDS011;24727;51.974;20.868;2023-12-28T09:03:48;23.80;;;11.38;;
38937;SDS011;24727;51.974;20.868;2023-12-28T09:06:18;20.27;;;10.40;;
38937;SDS011;24727;51.974;20.868;2023-12-28T09:08:45;29.42;;;12.88;;
38937;SDS011;24727;51.974;20.868;2023-12-28T09:11:13;22.05;;;9.75;;
38937;SDS011;24727;51.974;20.868;2023-12-28T09:13:39;23.23;;;12.05;;
38937;SDS011;24727;51.974;20.868;2023-12-28T09:16:10;27.63;;;12.57;;
38937;SDS011;24727;51.974;20.868;2023-12-28T09:18:37;21.88;;;9.30;;
38937;SDS011;24727;51.974;20.868;2023-12-28T09:21:04;19.55;;;10.40;;
38937;SDS011;24727;51.974;20.868;2023-12-28T09:23:31;21.10;;;8.68;;
38937;SDS011;24727;51.974;20.868;2023-12-28T09:26:01;20.83;;;9.38;;
38937;SDS011;24727;51.974;20.868;2023-12-28T09:28:30;19.05;;;9.40;;
38937;SDS011;24727;51.974;20.868;2023-12-28T09:30:57;26.58;;;11.52;;
38937;SDS011;24727;51.974;20.868;2023-12-28T09:33:23;29.67;;;9.93;;
38937;SDS011;24727;51.974;20.868;2023-12-28T09:35:49;25.60;;;10.15;;
38937;SDS011;24727;51.974;20.868;2023-12-28T09:38:15;22.67;;;9.02;;
38937;SDS011;24727;51.974;20.868;2023-12-28T09:40:41;20.10;;;9.82;;
38937;SDS011;24727;51.974;20.868;2023-12-28T09:46:06;23.80;;;9.00;;
38937;SDS011;24727;51.974;20.868;2023-12-28T09:48:33;19.70;;;8.60;;
38937;SDS011;24727;51.974;20.868;2023-12-28T09:50:59;18.88;;;9.23;;
38937;SDS011;24727;51.974;20.868;2023-12-28T09:53:25;15.57;;;7.90;;
38937;SDS011;24727;51.974;20.868;2023-12-28T09:55:52;17.02;;;7.80;;
38937;SDS011;24727;51.974;20.868;2023-12-28T09:58:19;14.85;;;7.28;;
38937;SDS011;24727;51.974;20.868;2023-12-28T10:00:47;19.98;;;8.52;;
38937;SDS011;24727;51.974;20.868;2023-12-28T10:03:14;15.40;;;7.07;;
38937;SDS011;24727;51.974;20.868;2023-12-28T10:05:42;14.63;;;6.68;;
38937;SDS011;24727;51.974;20.868;2023-12-28T10:08:12;12.68;;;6.75;;
38937;SDS011;24727;51.974;20.868;2023-12-28T10:10:38;11.93;;;6.68;;
38937;SDS011;24727;51.974;20.868;2023-12-28T10:13:06;9.93;;;5.95;;
38937;SDS011;24727;51.974;20.868;2023-12-28T10:15:36;12.07;;;5.65;;
38937;SDS011;24727;51.974;20.868;2023-12-28T10:18:03;10.38;;;5.93;;
38937;SDS011;24727;51.974;20.868;2023-12-28T10:20:30;12.02;;;5.70;;
38937;SDS011;24727;51.974;20.868;2023-12-28T10:22:57;9.95;;;5.53;;
38937;SDS011;24727;51.974;20.868;2023-12-28T10:25:24;10.45;;;5.50;;
38937;SDS011;24727;51.974;20.868;2023-12-28T10:27:50;10.07;;;5.28;;
38937;SDS011;24727;51.974;20.868;2023-12-28T10:30:19;9.38;;;5.60;;
38937;SDS011;24727;51.974;20.868;2023-12-28T10:32:45;11.00;;;5.32;;
38937;SDS011;24727;51.974;20.868;2023-12-28T10:35:11;8.48;;;5.22;;
38937;SDS011;24727;51.974;20.868;2023-12-28T10:37:40;10.48;;;4.80;;
38937;SDS011;24727;51.974;20.868;2023-12-28T10:40:07;8.25;;;5.13;;
38937;SDS011;24727;51.974;20.868;2023-12-28T10:42:49;10.45;;;5.03;;
38937;SDS011;24727;51.974;20.868;2023-12-28T10:45:17;10.40;;;5.43;;
38937;SDS011;24727;51.974;20.868;2023-12-28T10:48:10;8.13;;;5.10;;
38937;SDS011;24727;51.974;20.868;2023-12-28T10:50:40;10.38;;;5.57;;
38937;SDS011;24727;51.974;20.868;2023-12-28T10:53:19;11.07;;;5.35;;
38937;SDS011;24727;51.974;20.868;2023-12-28T10:58:43;12.57;;;6.18;;
38937;SDS011;24727;51.974;20.868;2023-12-28T11:01:16;9.85;;;6.15;;
38937;SDS011;24727;51.974;20.868;2023-12-28T11:03:50;9.93;;;5.68;;
38937;SDS011;24727;51.974;20.868;2023-12-28T11:06:24;10.27;;;6.25;;
38937;SDS011;24727;51.974;20.868;2023-12-28T11:08:52;13.98;;;7.00;;
38937;SDS011;24727;51.974;20.868;2023-12-28T11:11:21;13.27;;;6.57;;
38937;SDS011;24727;51.974;20.868;2023-12-28T11:13:47;11.68;;;6.60;;
38937;SDS011;24727;51.974;20.868;2023-12-28T11:16:15;11.93;;;6.18;;
38937;SDS011;24727;51.974;20.868;2023-12-28T11:18:42;11.27;;;5.60;;
38937;SDS011;24727;51.974;20.868;2023-12-28T11:21:09;11.90;;;5.60;;
38937;SDS011;24727;51.974;20.868;2023-12-28T11:23:36;11.70;;;6.25;;
38937;SDS011;24727;51.974;20.868;2023-12-28T11:26:02;11.68;;;6.75;;
38937;SDS011;24727;51.974;20.868;2023-12-28T11:28:28;9.90;;;5.70;;
38937;SDS011;24727;51.974;20.868;2023-12-28T11:30:54;13.27;;;6.70;;
38937;SDS011;24727;51.974;20.868;2023-12-28T11:33:21;11.60;;;6.88;;
38937;SDS011;24727;51.974;20.868;2023-12-28T11:35:47;11.05;;;6.82;;
38937;SDS011;24727;51.974;20.868;2023-12-28T11:38:13;14.45;;;6.97;;
38937;SDS011;24727;51.974;20.868;2023-12-28T11:40:41;14.07;;;6.32;;
38937;SDS011;24727;51.974;20.868;2023-12-28T11:43:18;12.68;;;6.40;;
38937;SDS011;24727;51.974;20.868;2023-12-28T11:45:48;10.68;;;6.03;;
38937;SDS011;24727;51.974;20.868;2023-12-28T11:48:25;11.43;;;6.40;;
38937;SDS011;24727;51.974;20.868;2023-12-28T11:50:55;10.77;;;6.07;;
38937;SDS011;24727;51.974;20.868;2023-12-28T11:53:22;10.13;;;5.85;;
38937;SDS011;24727;51.974;20.868;2023-12-28T11:55:49;9.07;;;5.53;;
38937;SDS011;24727;51.974;20.868;2023-12-28T11:58:16;9.73;;;5.20;;
38937;SDS011;24727;51.974;20.868;2023-12-28T12:00:45;10.48;;;5.88;;
38937;SDS011;24727;51.974;20.868;2023-12-28T12:03:11;8.82;;;3.85;;
38937;SDS011;24727;51.974;20.868;2023-12-28T12:05:37;8.43;;;4.47;;
38937;SDS011;24727;51.974;20.868;2023-12-28T12:08:05;8.23;;;4.63;;
38937;SDS011;24727;51.974;20.868;2023-12-28T12:10:34;9.40;;;4.65;;
38937;SDS011;24727;51.974;20.868;2023-12-28T12:13:00;7.05;;;4.18;;
38937;SDS011;24727;51.974;20.868;2023-12-28T12:15:28;8.32;;;4.13;;
38937;SDS011;24727;51.974;20.868;2023-12-28T12:17:54;11.38;;;4.78;;
38937;SDS011;24727;51.974;20.868;2023-12-28T12:20:20;7.85;;;3.97;;
38937;SDS011;24727;51.974;20.868;2023-12-28T12:22:48;7.45;;;4.35;;
38937;SDS011;24727;51.974;20.868;2023-12-28T12:25:14;9.60;;;5.30;;
38937;SDS011;24727;51.974;20.868;2023-12-28T12:27:41;9.65;;;4.63;;
38937;SDS011;24727;51.974;20.868;2023-12-28T12:30:07;6.55;;;3.85;;
38937;SDS011;24727;51.974;20.868;2023-12-28T12:32:34;6.95;;;4.25;;
38937;SDS011;24727;51.974;20.868;2023-12-28T12:35:09;7.60;;;4.28;;
38937;SDS011;24727;51.974;20.868;2023-12-28T12:37:36;5.65;;;3.53;;
38937;SDS011;24727;51.974;20.868;2023-12-28T12:40:03;8.20;;;4.35;;
38937;SDS011;24727;51.974;20.868;2023-12-28T12:42:31;8.40;;;4.15;;
38937;SDS011;24727;51.974;20.868;2023-12-28T12:44:58;7.38;;;3.97;;
38937;SDS011;24727;51.974;20.868;2023-12-28T12:47:23;5.88;;;3.60;;
38937;SDS011;24727;51.974;20.868;2023-12-28T12:49:52;8.68;;;4.75;;
38937;SDS011;24727;51.974;20.868;2023-12-28T12:52:20;9.82;;;4.18;;
38937;SDS011;24727;51.974;20.868;2023-12-28T12:54:57;9.05;;;4.80;;
38937;SDS011;24727;51.974;20.868;2023-12-28T12:57:26;6.20;;;3.50;;
38937;SDS011;24727;51.974;20.868;2023-12-28T12:59:53;8.27;;;4.22;;
38937;SDS011;24727;51.974;20.868;2023-12-28T13:02:22;8.98;;;4.05;;
38937;SDS011;24727;51.974;20.868;2023-12-28T13:04:51;7.25;;;3.83;;
38937;SDS011;24727;51.974;20.868;2023-12-28T13:07:18;7.80;;;3.90;;
38937;SDS011;24727;51.974;20.868;2023-12-28T13:09:44;6.00;;;3.70;;
38937;SDS011;24727;51.974;20.868;2023-12-28T13:12:10;6.78;;;3.85;;
38937;SDS011;24727;51.974;20.868;2023-12-28T13:14:36;8.02;;;3.72;;
38937;SDS011;24727;51.974;20.868;2023-12-28T13:17:02;12.63;;;5.72;;
38937;SDS011;24727;51.974;20.868;2023-12-28T13:19:28;13.32;;;5.90;;
38937;SDS011;24727;51.974;20.868;2023-12-28T13:21:54;14.23;;;4.97;;
38937;SDS011;24727;51.974;20.868;2023-12-28T13:24:19;9.20;;;4.60;;
38937;SDS011;24727;51.974;20.868;2023-12-28T13:26:45;14.32;;;5.60;;
38937;SDS011;24727;51.974;20.868;2023-12-28T13:29:11;14.85;;;4.82;;
38937;SDS011;24727;51.974;20.868;2023-12-28T13:31:37;14.52;;;5.68;;
38937;SDS011;24727;51.974;20.868;2023-12-28T13:34:03;12.65;;;5.25;;
38937;SDS011;24727;51.974;20.868;2023-12-28T13:36:29;8.27;;;4.80;;
38937;SDS011;24727;51.974;20.868;2023-12-28T13:38:55;11.73;;;4.80;;
38937;SDS011;24727;51.974;20.868;2023-12-28T13:41:20;8.80;;;4.15;;
38937;SDS011;24727;51.974;20.868;2023-12-28T13:43:46;7.13;;;4.13;;
38937;SDS011;24727;51.974;20.868;2023-12-28T13:46:12;8.15;;;4.75;;
38937;SDS011;24727;51.974;20.868;2023-12-28T13:48:38;9.93;;;4.90;;
38937;SDS011;24727;51.974;20.868;2023-12-28T13:51:05;11.95;;;5.05;;
38937;SDS011;24727;51.974;20.868;2023-12-28T13:53:31;10.65;;;5.60;;
38937;SDS011;24727;51.974;20.868;2023-12-28T13:56:00;8.90;;;4.72;;
38937;SDS011;24727;51.974;20.868;2023-12-28T13:58:27;6.70;;;4.15;;
38937;SDS011;24727;51.974;20.868;2023-12-28T14:00:53;10.50;;;5.25;;
38937;SDS011;24727;51.974;20.868;2023-12-28T14:03:19;10.43;;;4.80;;
38937;SDS011;24727;51.974;20.868;2023-12-28T14:05:45;11.77;;;4.85;;
38937;SDS011;24727;51.974;20.868;2023-12-28T14:08:12;13.10;;;5.25;;
38937;SDS011;24727;51.974;20.868;2023-12-28T14:10:37;12.10;;;5.00;;
38937;SDS011;24727;51.974;20.868;2023-12-28T14:13:03;12.15;;;5.55;;
38937;SDS011;24727;51.974;20.868;2023-12-28T14:15:30;13.57;;;4.72;;
38937;SDS011;24727;51.974;20.868;2023-12-28T14:17:56;15.98;;;6.28;;
38937;SDS011;24727;51.974;20.868;2023-12-28T14:20:22;25.30;;;9.15;;
38937;SDS011;24727;51.974;20.868;2023-12-28T14:22:48;18.60;;;8.70;;
38937;SDS011;24727;51.974;20.868;2023-12-28T14:25:15;11.40;;;6.35;;
38937;SDS011;24727;51.974;20.868;2023-12-28T14:27:41;14.23;;;6.68;;
38937;SDS011;24727;51.974;20.868;2023-12-28T14:30:08;10.57;;;5.60;;